createdAt,value
2024-02-18T00:00:46.282Z,71.20
2024-02-18T00:03:14.282Z,69.61
2024-02-18T00:05:42.394Z,69.30
2024-02-18T00:08:10.354Z,68.43
2024-02-18T00:10:38.876Z,67.80
2024-02-18T00:13:09.708Z,65.76
2024-02-18T00:15:38.009Z,65.61
2024-02-18T00:18:06.245Z,65.82
2024-02-18T00:20:34.497Z,66.28
2024-02-18T00:23:03.621Z,65.58
2024-02-18T00:25:31.620Z,65.78
2024-02-18T00:27:59.679Z,65.80
2024-02-18T00:30:28.359Z,67.23
2024-02-18T00:32:56.507Z,66.25
2024-02-18T00:35:24.576Z,66.66
2024-02-18T00:37:53.560Z,66.22
2024-02-18T00:40:23.120Z,66.96
2024-02-18T00:42:51.325Z,67.62
2024-02-18T00:45:19.201Z,66.94
2024-02-18T00:47:47.399Z,66.24
2024-02-18T00:50:15.367Z,66.57
2024-02-18T00:52:43.353Z,65.64
2024-02-18T00:55:11.413Z,65.68
2024-02-18T00:57:39.587Z,64.92
2024-02-18T01:00:09.150Z,65.23
2024-02-18T01:02:37.150Z,65.56
2024-02-18T01:05:05.772Z,65.87
2024-02-18T01:07:33.751Z,66.53
2024-02-18T01:10:02.154Z,67.37
2024-02-18T01:12:30.459Z,68.58
2024-02-18T01:14:58.338Z,68.99
2024-02-18T01:17:26.346Z,69.82
2024-02-18T01:19:59.640Z,70.32
2024-02-18T01:22:27.839Z,70.50
2024-02-18T01:24:57.288Z,70.69
2024-02-18T01:27:25.366Z,71.58
2024-02-18T01:29:53.257Z,71.96
2024-02-18T01:32:21.128Z,72.45
2024-02-18T01:34:49.257Z,72.68
2024-02-18T01:37:17.074Z,72.78
2024-02-18T01:39:45.256Z,73.58
2024-02-18T01:42:13.140Z,74.25
2024-02-18T01:44:41.037Z,74.36
2024-02-18T01:47:08.955Z,74.57
2024-02-18T01:49:37.150Z,74.17
2024-02-18T01:52:05.432Z,74.75
2024-02-18T01:54:37.163Z,75.11
2024-02-18T01:57:08.103Z,74.17
2024-02-18T01:59:37.797Z,74.70
2024-02-18T02:02:06.085Z,74.26
2024-02-18T02:04:34.375Z,74.54
2024-02-18T02:07:02.753Z,74.26
2024-02-18T02:09:31.774Z,75.72
2024-02-18T02:11:59.771Z,74.71
2024-02-18T02:14:27.750Z,75.21
2024-02-18T02:16:55.822Z,75.90
2024-02-18T02:19:24.840Z,76.13
2024-02-18T02:21:53.146Z,77.05
2024-02-18T02:24:21.229Z,78.11
2024-02-18T02:26:53.762Z,78.09
2024-02-18T02:29:21.984Z,78.55
2024-02-18T02:31:50.885Z,79.55
2024-02-18T02:34:19.890Z,78.71
2024-02-18T02:36:48.770Z,79.76
2024-02-18T02:39:16.651Z,80.41
2024-02-18T02:41:44.790Z,79.24
2024-02-18T02:44:13.706Z,79.75
2024-02-18T02:46:41.636Z,80.64
2024-02-18T02:49:09.959Z,80.94
2024-02-18T02:51:37.898Z,81.04
2024-02-18T02:54:06.493Z,81.52
2024-02-18T02:56:34.679Z,82.40
2024-02-18T02:59:02.602Z,82.21
2024-02-18T03:01:30.581Z,84.04
2024-02-18T03:03:58.668Z,82.86
2024-02-18T03:06:26.916Z,84.01
2024-02-18T03:08:54.787Z,85.42
2024-02-18T03:11:22.823Z,86.41
2024-02-18T03:13:50.773Z,88.00
2024-02-18T03:16:18.784Z,88.36
2024-02-18T03:18:46.903Z,87.75
2024-02-18T03:21:14.924Z,87.91
2024-02-18T03:23:44.508Z,88.66
2024-02-18T03:26:12.685Z,88.54
2024-02-18T03:28:40.747Z,89.47
2024-02-18T03:31:18.729Z,89.33
2024-02-18T03:33:47.007Z,91.88
2024-02-18T03:36:15.074Z,90.83
2024-02-18T03:38:43.025Z,90.34
2024-02-18T03:41:11.001Z,90.26
2024-02-18T03:43:38.930Z,89.74
2024-02-18T03:46:07.336Z,90.81
2024-02-18T03:48:35.345Z,91.27
2024-02-18T03:51:03.373Z,92.42
2024-02-18T03:53:31.384Z,92.76
2024-02-18T03:55:59.204Z,93.34
2024-02-18T03:58:27.202Z,92.90
2024-02-18T04:00:55.461Z,92.23
2024-02-18T04:03:23.493Z,92.44
2024-02-18T04:05:51.587Z,94.39
2024-02-18T04:08:19.483Z,95.61
2024-02-18T04:10:47.348Z,96.78
2024-02-18T04:13:15.378Z,97.31
2024-02-18T04:15:43.884Z,96.88
2024-02-18T04:18:11.920Z,97.55
2024-02-18T04:20:39.917Z,97.05
2024-02-18T04:23:07.904Z,97.31
2024-02-18T04:25:35.947Z,98.03
2024-02-18T04:28:04.119Z,95.82
2024-02-18T04:30:32.177Z,98.90
2024-02-18T04:33:00.124Z,98.17
2024-02-18T04:35:28.340Z,100.00
2024-02-18T04:37:56.259Z,100.00
2024-02-18T04:40:24.425Z,99.75
2024-02-18T04:42:52.504Z,100.00
2024-02-18T04:45:20.586Z,100.00
2024-02-18T04:47:48.661Z,100.00
2024-02-18T04:50:16.892Z,100.00
2024-02-18T04:52:44.931Z,100.00
2024-02-18T04:55:12.881Z,100.00
2024-02-18T04:57:41.646Z,100.00
2024-02-18T05:00:11.925Z,100.00
2024-02-18T05:02:39.954Z,100.00
2024-02-18T05:05:08.664Z,100.00
2024-02-18T05:07:36.667Z,100.00
2024-02-18T05:10:05.395Z,100.00
2024-02-18T05:12:33.324Z,100.00
2024-02-18T05:15:01.342Z,100.00
2024-02-18T05:17:29.295Z,100.00
2024-02-18T05:19:57.752Z,100.00
2024-02-18T05:22:26.355Z,100.00
2024-02-18T05:24:54.441Z,100.00
2024-02-18T05:27:22.331Z,100.00
2024-02-18T05:29:50.272Z,100.00
2024-02-18T05:32:20.004Z,100.00
2024-02-18T05:34:48.093Z,100.00
2024-02-18T05:37:16.487Z,100.00
2024-02-18T05:39:44.377Z,100.00
2024-02-18T05:42:12.277Z,100.00
2024-02-18T05:44:40.241Z,100.00
2024-02-18T05:47:08.085Z,100.00
2024-02-18T05:49:37.408Z,100.00
2024-02-18T05:52:06.522Z,100.00
2024-02-18T05:54:34.563Z,100.00
2024-02-18T05:57:02.533Z,100.00
2024-02-18T05:59:30.460Z,100.00
2024-02-18T06:01:58.660Z,100.00
2024-02-18T06:04:26.607Z,100.00
2024-02-18T06:06:54.599Z,100.00
2024-02-18T06:09:22.859Z,100.00
2024-02-18T06:11:50.795Z,100.00
2024-02-18T06:14:18.682Z,100.00
2024-02-18T06:16:46.650Z,100.00
2024-02-18T06:19:17.461Z,100.00
2024-02-18T06:21:46.167Z,100.00
2024-02-18T06:24:14.049Z,100.00
2024-02-18T06:26:42.462Z,100.00
2024-02-18T06:29:10.998Z,100.00
2024-02-18T06:31:38.846Z,100.00
2024-02-18T06:34:06.727Z,100.00
2024-02-18T06:36:38.022Z,100.00
2024-02-18T06:39:06.494Z,100.00
2024-02-18T06:41:35.362Z,100.00
2024-02-18T06:44:03.299Z,100.00
2024-02-18T06:46:31.151Z,100.00
2024-02-18T06:48:59.003Z,100.00
2024-02-18T06:51:27.063Z,100.00
2024-02-18T06:53:54.946Z,100.00
2024-02-18T06:56:22.807Z,100.00
2024-02-18T06:58:50.832Z,100.00
2024-02-18T07:01:22.853Z,100.00
2024-02-18T07:03:50.900Z,100.00
2024-02-18T07:06:20.030Z,100.00
2024-02-18T07:08:47.921Z,100.00
2024-02-18T07:11:16.738Z,100.00
2024-02-18T07:13:45.608Z,100.00
2024-02-18T07:16:13.589Z,100.00
2024-02-18T07:18:41.870Z,100.00
2024-02-18T07:21:10.670Z,100.00
2024-02-18T07:23:38.569Z,100.00
2024-02-18T07:26:06.500Z,100.00
2024-02-18T07:28:34.292Z,100.00
2024-02-18T07:31:02.120Z,100.00
2024-02-18T07:33:30.321Z,100.00
2024-02-18T07:35:58.430Z,100.00
2024-02-18T07:38:28.338Z,100.00
2024-02-18T07:40:56.720Z,100.00
2024-02-18T07:43:24.553Z,100.00
2024-02-18T07:45:54.670Z,100.00
2024-02-18T07:48:23.113Z,100.00
2024-02-18T07:50:51.044Z,100.00
2024-02-18T07:53:18.954Z,100.00
2024-02-18T07:55:46.828Z,100.00
2024-02-18T07:58:16.574Z,100.00
2024-02-18T08:00:44.504Z,100.00
2024-02-18T08:03:12.528Z,100.00
2024-02-18T08:05:40.431Z,100.00
2024-02-18T08:08:09.009Z,100.00
2024-02-18T08:10:36.867Z,100.00
2024-02-18T08:13:04.963Z,100.00
2024-02-18T08:15:32.843Z,100.00
2024-02-18T08:18:00.819Z,100.00
2024-02-18T08:20:28.739Z,100.00
2024-02-18T08:22:56.944Z,100.00
2024-02-18T08:25:24.817Z,100.00
2024-02-18T08:27:52.665Z,100.00
2024-02-18T08:30:20.520Z,100.00
2024-02-18T08:32:48.630Z,100.00
2024-02-18T08:35:16.745Z,100.00
2024-02-18T08:37:46.516Z,100.00
2024-02-18T08:40:14.593Z,100.00
2024-02-18T08:42:42.558Z,100.00
2024-02-18T08:45:10.966Z,100.00
2024-02-18T08:47:38.946Z,100.00
2024-02-18T08:50:07.611Z,100.00
2024-02-18T08:52:35.566Z,100.00
2024-02-18T08:55:03.623Z,100.00
2024-02-18T08:57:32.194Z,100.00
2024-02-18T09:00:04.613Z,100.00
2024-02-18T09:02:32.502Z,100.00
2024-02-18T09:05:02.278Z,100.00
2024-02-18T09:07:32.621Z,100.00
2024-02-18T09:10:00.721Z,100.00
2024-02-18T09:12:29.370Z,100.00
2024-02-18T09:14:57.915Z,100.00
2024-02-18T09:17:25.753Z,100.00
2024-02-18T09:19:53.783Z,100.00
2024-02-18T09:22:21.858Z,100.00
2024-02-18T09:24:49.719Z,100.00
2024-02-18T09:27:18.321Z,100.00
2024-02-18T09:29:46.227Z,100.00
2024-02-18T09:32:14.188Z,100.00
2024-02-18T09:34:42.650Z,100.00
2024-02-18T09:37:10.946Z,100.00
2024-02-18T09:39:38.854Z,100.00
2024-02-18T09:42:09.510Z,100.00
2024-02-18T09:44:38.463Z,100.00
2024-02-18T09:47:08.641Z,100.00
2024-02-18T09:49:37.163Z,100.00
2024-02-18T09:52:07.365Z,100.00
2024-02-18T09:54:37.680Z,100.00
2024-02-18T09:57:06.882Z,100.00
2024-02-18T09:59:34.899Z,100.00
2024-02-18T10:02:07.043Z,100.00
2024-02-18T10:04:36.384Z,100.00
2024-02-18T10:07:05.646Z,100.00
2024-02-18T10:09:33.675Z,100.00
2024-02-18T10:12:01.711Z,100.00
2024-02-18T10:14:29.731Z,100.00
2024-02-18T10:16:58.503Z,100.00
2024-02-18T10:19:26.809Z,100.00
2024-02-18T10:21:55.253Z,100.00
2024-02-18T10:24:26.512Z,100.00
2024-02-18T10:26:59.308Z,100.00
2024-02-18T10:29:27.241Z,100.00
2024-02-18T10:31:56.090Z,100.00
2024-02-18T10:34:24.019Z,100.00
2024-02-18T10:37:01.845Z,100.00
2024-02-18T10:39:33.217Z,100.00
2024-02-18T10:42:20.920Z,100.00
2024-02-18T10:44:53.031Z,100.00
2024-02-18T10:47:25.266Z,100.00
2024-02-18T10:50:03.078Z,100.00
2024-02-18T10:52:40.185Z,100.00
2024-02-18T10:55:12.543Z,100.00
2024-02-18T10:57:46.522Z,100.00
2024-02-18T11:00:19.037Z,100.00
2024-02-18T11:02:59.987Z,100.00
2024-02-18T11:05:37.736Z,100.00
2024-02-18T11:08:09.209Z,100.00
2024-02-18T11:10:38.117Z,100.00
2024-02-18T11:13:07.057Z,100.00
2024-02-18T11:15:37.442Z,100.00
2024-02-18T11:18:07.944Z,100.00
2024-02-18T11:20:37.380Z,100.00
2024-02-18T11:23:06.122Z,100.00
2024-02-18T11:25:33.962Z,100.00
2024-02-18T11:28:01.996Z,100.00
2024-02-18T11:30:29.971Z,100.00
2024-02-18T11:32:57.988Z,100.00
2024-02-18T11:35:25.931Z,100.00
2024-02-18T11:37:53.857Z,100.00
2024-02-18T11:40:21.888Z,100.00
2024-02-18T11:42:50.838Z,100.00
2024-02-18T11:45:25.161Z,100.00
2024-02-18T11:47:56.588Z,100.00
2024-02-18T11:50:24.598Z,100.00
2024-02-18T11:52:53.299Z,100.00
2024-02-18T11:55:26.164Z,100.00
2024-02-18T11:57:54.240Z,100.00
2024-02-18T12:00:22.919Z,100.00
2024-02-18T12:02:57.674Z,100.00
2024-02-18T12:05:26.334Z,100.00
2024-02-18T12:07:59.881Z,100.00
2024-02-18T12:10:29.256Z,100.00
2024-02-18T12:12:57.338Z,100.00
2024-02-18T12:15:29.392Z,100.00
2024-02-18T12:18:02.246Z,100.00
2024-02-18T12:20:34.947Z,100.00
2024-02-18T12:23:09.477Z,100.00
2024-02-18T12:25:41.390Z,100.00
2024-02-18T12:28:12.811Z,100.00
2024-02-18T12:30:41.191Z,100.00
2024-02-18T12:33:10.079Z,100.00
2024-02-18T12:35:38.558Z,100.00
2024-02-18T12:38:07.162Z,100.00
2024-02-18T12:40:36.396Z,100.00
2024-02-18T12:43:38.639Z,100.00
2024-02-18T12:46:01.803Z,100.00
2024-02-18T12:48:32.693Z,100.00
2024-02-18T12:51:15.674Z,100.00
2024-02-18T12:53:45.041Z,100.00
2024-02-18T12:56:13.734Z,100.00
2024-02-18T12:58:42.536Z,100.00
2024-02-18T13:01:11.622Z,100.00
2024-02-18T13:03:41.254Z,100.00
2024-02-18T13:06:12.243Z,100.00
2024-02-18T13:08:40.344Z,100.00
2024-02-18T13:11:08.338Z,100.00
2024-02-18T13:13:36.531Z,100.00
2024-02-18T13:16:04.484Z,100.00
2024-02-18T13:18:32.520Z,100.00
2024-02-18T13:21:02.656Z,100.00
2024-02-18T13:23:30.516Z,99.65
2024-02-18T13:25:58.448Z,98.46
2024-02-18T13:28:26.446Z,96.86
2024-02-18T13:30:54.375Z,97.28
2024-02-18T13:33:22.507Z,95.86
2024-02-18T13:35:50.643Z,94.23
2024-02-18T13:38:18.651Z,93.00
2024-02-18T13:40:46.577Z,92.65
2024-02-18T13:43:15.063Z,92.46
2024-02-18T13:45:44.019Z,92.94
2024-02-18T13:48:12.150Z,90.76
2024-02-18T13:50:40.309Z,90.17
2024-02-18T13:53:08.952Z,88.13
2024-02-18T13:55:37.398Z,86.92
2024-02-18T13:58:05.828Z,86.14
2024-02-18T14:00:34.010Z,85.83
2024-02-18T14:03:01.957Z,85.26
2024-02-18T14:05:30.052Z,83.77
2024-02-18T14:07:59.001Z,84.39
2024-02-18T14:10:29.067Z,83.63
2024-02-18T14:12:57.044Z,85.30
2024-02-18T14:15:25.864Z,83.33
2024-02-18T14:17:59.935Z,80.90
2024-02-18T14:20:27.756Z,80.35
2024-02-18T14:22:55.689Z,79.27
2024-02-18T14:25:23.812Z,78.46
2024-02-18T14:27:52.490Z,79.87
2024-02-18T14:30:20.481Z,79.75
2024-02-18T14:32:52.803Z,78.55
2024-02-18T14:35:21.468Z,79.40
2024-02-18T14:37:50.547Z,80.62
2024-02-18T14:40:18.761Z,80.43
2024-02-18T14:42:46.749Z,78.93
2024-02-18T14:45:15.260Z,78.88
2024-02-18T14:47:44.013Z,78.64
2024-02-18T14:50:15.865Z,77.98
2024-02-18T14:52:44.718Z,77.94
2024-02-18T14:55:12.868Z,77.85
2024-02-18T14:57:41.169Z,77.47
2024-02-18T15:00:11.569Z,76.58
2024-02-18T15:02:41.927Z,76.64
2024-02-18T15:05:12.963Z,76.41
2024-02-18T15:07:41.121Z,75.10
2024-02-18T15:10:10.328Z,73.35
2024-02-18T15:12:38.721Z,72.67
2024-02-18T15:15:07.593Z,72.28
2024-02-18T15:17:35.746Z,71.28
2024-02-18T15:20:05.806Z,70.61
2024-02-18T15:22:37.159Z,70.15
2024-02-18T15:25:06.768Z,67.38
2024-02-18T15:27:35.009Z,67.89
2024-02-18T15:30:03.945Z,68.73
2024-02-18T15:32:32.163Z,68.74
2024-02-18T15:35:00.544Z,68.21
2024-02-18T15:37:28.478Z,68.03
2024-02-18T15:39:56.504Z,68.82
2024-02-18T15:42:24.518Z,65.78
2024-02-18T15:44:52.545Z,65.67
2024-02-18T15:47:20.602Z,65.29
2024-02-18T15:49:50.345Z,64.64
2024-02-18T15:52:18.416Z,62.50
2024-02-18T15:54:46.594Z,63.51
2024-02-18T15:57:14.490Z,62.15
2024-02-18T15:59:42.376Z,60.04
2024-02-18T16:02:10.392Z,61.00
2024-02-18T16:04:38.627Z,60.42
2024-02-18T16:07:06.782Z,60.50
2024-02-18T16:09:34.830Z,59.70
2024-02-18T16:12:02.872Z,58.36
2024-02-18T16:14:30.866Z,58.50
2024-02-18T16:16:58.872Z,58.59
2024-02-18T16:19:26.934Z,57.40
2024-02-18T16:21:55.242Z,56.72
2024-02-18T16:24:23.502Z,56.66
2024-02-18T16:26:52.659Z,56.39
2024-02-18T16:29:20.578Z,56.43
2024-02-18T16:31:49.008Z,56.10
2024-02-18T16:34:16.927Z,55.66
2024-02-18T16:36:45.179Z,54.75
2024-02-18T16:39:15.173Z,54.81
2024-02-18T16:41:43.658Z,55.44
2024-02-18T16:44:11.737Z,55.59
2024-02-18T16:46:40.617Z,54.63
2024-02-18T16:49:08.937Z,55.83
2024-02-18T16:51:45.629Z,54.05
2024-02-18T16:54:14.342Z,53.95
2024-02-18T16:56:42.264Z,53.00
2024-02-18T16:59:10.434Z,52.52
2024-02-18T17:01:38.619Z,52.47
2024-02-18T17:04:10.258Z,52.77
2024-02-18T17:06:44.859Z,50.93
2024-02-18T17:09:18.036Z,50.43
2024-02-18T17:11:46.101Z,50.28
2024-02-18T17:14:14.049Z,49.88
2024-02-18T17:16:42.028Z,49.87
2024-02-18T17:19:13.384Z,49.91
2024-02-18T17:21:44.910Z,49.24
2024-02-18T17:24:12.882Z,48.92
2024-02-18T17:26:41.059Z,47.62
2024-02-18T17:29:08.925Z,47.96
2024-02-18T17:31:36.735Z,48.69
2024-02-18T17:34:04.829Z,47.92
2024-02-18T17:36:32.915Z,47.03
2024-02-18T17:39:01.391Z,47.15
2024-02-18T17:41:29.405Z,45.95
2024-02-18T17:43:57.285Z,46.38
2024-02-18T17:46:28.787Z,47.07
2024-02-18T17:48:56.835Z,47.67
2024-02-18T17:51:34.388Z,48.33
2024-02-18T17:54:02.693Z,47.90
2024-02-18T17:56:34.786Z,47.32
2024-02-18T17:59:08.916Z,46.78
2024-02-18T18:01:36.994Z,47.02
2024-02-18T18:04:05.160Z,45.86
2024-02-18T18:06:33.965Z,45.35
2024-02-18T18:09:02.205Z,46.05
2024-02-18T18:11:30.226Z,46.13
2024-02-18T18:13:58.320Z,46.81
2024-02-18T18:16:26.139Z,45.01
2024-02-18T18:18:54.901Z,46.29
2024-02-18T18:21:22.890Z,45.72
2024-02-18T18:23:55.935Z,46.57
2024-02-18T18:26:26.670Z,44.58
2024-02-18T18:28:54.519Z,44.77
2024-02-18T18:31:22.436Z,45.15
2024-02-18T18:33:50.492Z,44.40
2024-02-18T18:36:18.721Z,44.98
2024-02-18T18:38:46.675Z,44.73
2024-02-18T18:41:14.748Z,44.26
2024-02-18T18:43:43.664Z,45.49
2024-02-18T18:46:11.632Z,45.14
2024-02-18T18:48:40.039Z,45.37
2024-02-18T18:51:07.857Z,43.84
2024-02-18T18:53:36.185Z,44.64
2024-02-18T18:56:04.179Z,45.93
2024-02-18T18:58:34.516Z,46.28
2024-02-18T19:01:02.423Z,45.70
2024-02-18T19:03:30.531Z,45.18
2024-02-18T19:05:58.454Z,46.37
2024-02-18T19:08:26.373Z,47.00
2024-02-18T19:10:54.442Z,45.74
2024-02-18T19:13:39.060Z,45.24
2024-02-18T19:16:11.081Z,45.53
2024-02-18T19:18:40.636Z,47.56
2024-02-18T19:21:08.608Z,48.00
2024-02-18T19:23:36.546Z,45.63
2024-02-18T19:26:04.586Z,46.32
2024-02-18T19:28:32.464Z,46.77
2024-02-18T19:31:00.849Z,45.93
2024-02-18T19:33:28.848Z,46.42
2024-02-18T19:35:56.800Z,46.67
2024-02-18T19:38:25.132Z,46.61
2024-02-18T19:40:52.989Z,46.56
2024-02-18T19:43:21.080Z,47.65
2024-02-18T19:45:49.445Z,47.77
2024-02-18T19:48:17.386Z,46.01
2024-02-18T19:50:45.349Z,45.78
2024-02-18T19:53:13.265Z,45.56
2024-02-18T19:55:41.243Z,46.17
2024-02-18T19:58:09.420Z,47.14
2024-02-18T20:00:37.464Z,47.42
2024-02-18T20:03:05.491Z,46.46
2024-02-18T20:05:35.078Z,48.15
2024-02-18T20:08:04.677Z,48.93
2024-02-18T20:10:32.603Z,49.29
2024-02-18T20:13:00.499Z,47.25
2024-02-18T20:15:28.551Z,47.35
2024-02-18T20:17:56.652Z,47.98
2024-02-18T20:20:25.416Z,49.10
2024-02-18T20:22:54.607Z,46.75
2024-02-18T20:25:22.704Z,46.80
2024-02-18T20:27:51.828Z,47.10
2024-02-18T20:30:21.941Z,46.63
2024-02-18T20:32:50.014Z,46.68
2024-02-18T20:35:18.232Z,46.28
2024-02-18T20:37:46.153Z,47.27
2024-02-18T20:40:21.070Z,47.40
2024-02-18T20:42:52.217Z,46.63
2024-02-18T20:45:22.171Z,45.39
2024-02-18T20:47:50.112Z,46.13
2024-02-18T20:50:18.983Z,45.44
2024-02-18T20:52:47.249Z,44.16
2024-02-18T20:55:19.258Z,44.23
2024-02-18T20:57:47.243Z,45.69
2024-02-18T21:00:16.126Z,44.75
2024-02-18T21:02:45.772Z,43.69
2024-02-18T21:05:13.839Z,44.11
2024-02-18T21:07:41.872Z,43.18
2024-02-18T21:10:11.168Z,44.18
2024-02-18T21:12:39.159Z,43.94
2024-02-18T21:15:08.099Z,43.95
2024-02-18T21:17:36.347Z,44.66
2024-02-18T21:20:05.497Z,44.95
2024-02-18T21:22:33.650Z,44.92
2024-02-18T21:25:01.778Z,44.30
2024-02-18T21:27:29.911Z,45.38
2024-02-18T21:29:57.892Z,47.36
2024-02-18T21:32:25.963Z,47.24
2024-02-18T21:34:54.323Z,47.05
2024-02-18T21:37:22.391Z,46.20
2024-02-18T21:39:50.365Z,46.49
2024-02-18T21:42:18.380Z,47.12
2024-02-18T21:44:46.775Z,45.69
2024-02-18T21:47:16.149Z,45.78
2024-02-18T21:49:44.110Z,46.95
2024-02-18T21:52:12.271Z,47.94
2024-02-18T21:54:40.491Z,47.95
2024-02-18T21:57:08.428Z,48.93
2024-02-18T21:59:36.393Z,48.75
2024-02-18T22:02:04.790Z,48.57
2024-02-18T22:04:33.055Z,48.14
2024-02-18T22:07:12.767Z,47.73
2024-02-18T22:09:46.272Z,48.85
2024-02-18T22:12:15.039Z,49.83
2024-02-18T22:14:43.245Z,49.62
2024-02-18T22:17:11.809Z,50.03
2024-02-18T22:19:39.972Z,50.75
2024-02-18T22:22:07.892Z,50.75
2024-02-18T22:24:35.945Z,52.71
2024-02-18T22:27:03.813Z,54.12
2024-02-18T22:29:32.046Z,54.84
2024-02-18T22:32:00.001Z,52.76
2024-02-18T22:34:28.026Z,52.44
2024-02-18T22:36:56.112Z,52.49
2024-02-18T22:39:24.104Z,51.58
2024-02-18T22:41:52.063Z,52.98
2024-02-18T22:44:19.924Z,51.92
2024-02-18T22:46:48.498Z,52.67
2024-02-18T22:49:16.650Z,53.74
2024-02-18T22:51:52.777Z,55.30
2024-02-18T22:54:20.881Z,57.21
2024-02-18T22:56:48.730Z,59.47
2024-02-18T22:59:16.714Z,60.26
2024-02-18T23:01:44.808Z,60.45
2024-02-18T23:04:12.919Z,59.34
2024-02-18T23:06:41.020Z,59.82
2024-02-18T23:09:09.616Z,59.27
2024-02-18T23:11:37.718Z,59.97
2024-02-18T23:14:05.779Z,61.40
2024-02-18T23:16:33.924Z,60.96
2024-02-18T23:19:01.886Z,60.60
2024-02-18T23:21:29.938Z,61.96
2024-02-18T23:23:57.911Z,63.97
2024-02-18T23:26:25.792Z,65.55
2024-02-18T23:28:53.816Z,65.18
2024-02-18T23:31:21.998Z,63.74
2024-02-18T23:33:50.591Z,64.22
2024-02-18T23:36:18.796Z,66.16
2024-02-18T23:38:46.795Z,67.50
2024-02-18T23:41:14.801Z,67.81
2024-02-18T23:43:43.375Z,68.81
2024-02-18T23:46:11.940Z,69.04
2024-02-18T23:48:40.044Z,68.63
2024-02-18T23:51:08.047Z,67.62
2024-02-18T23:53:36.297Z,67.67
2024-02-18T23:56:04.149Z,67.75
2024-02-18T23:58:32.741Z,67.27
